Terminal Aerodrome Forecast
Issued by NWS

Home | Current Version | Previous Version | Text Only | Print | Product List | Glossary On
Versions: 1 2 3 4 5 6 7 8 9 10 11 12 13 14 15 16
000
FTUS46 KLOX 042340
TAFBUR
TAF
KBUR 042340Z 0500/0524 18010KT P6SM SKC
     FM050400 15006KT P6SM SKC
     FM050700 15005KT P6SM OVC025
     FM051600 15005KT P6SM OVC035
     FM052000 18009KT P6SM SKC=

USA.gov is the U.S. government's official web portal to all federal, state and local government web resources and services.